createdAt,value
2023-04-07T00:01:37.995Z,20.50
2023-04-07T00:06:42.254Z,27.75
2023-04-07T00:11:46.421Z,24.25
2023-04-07T00:16:50.467Z,24.25
2023-04-07T00:21:55.525Z,23.75
2023-04-07T00:26:59.756Z,16.75
2023-04-07T00:32:04.051Z,22.00
2023-04-07T00:37:08.296Z,16.25
2023-04-07T00:42:12.945Z,22.50
2023-04-07T00:47:17.922Z,16.00
2023-04-07T00:52:28.538Z,16.75
2023-04-07T00:57:33.220Z,16.25
2023-04-07T01:02:44.568Z,18.00
2023-04-07T01:07:48.872Z,18.75
2023-04-07T01:12:53.097Z,17.75
2023-04-07T01:18:09.028Z,20.25
2023-04-07T01:23:19.559Z,21.50
2023-04-07T01:28:23.901Z,20.75
2023-04-07T01:33:30.739Z,17.75
2023-04-07T01:38:35.612Z,18.50
2023-04-07T01:43:41.689Z,15.25
2023-04-07T01:48:46.566Z,21.00
2023-04-07T01:53:51.031Z,17.00
2023-04-07T01:58:55.089Z,19.50
2023-04-07T02:04:13.123Z,18.25
2023-04-07T02:09:17.964Z,20.25
2023-04-07T02:14:24.236Z,15.25
2023-04-07T02:19:38.769Z,18.25
2023-04-07T02:24:44.224Z,17.50
2023-04-07T02:29:48.573Z,16.00
2023-04-07T02:34:52.762Z,16.00
2023-04-07T02:39:57.242Z,17.00
2023-04-07T02:45:02.194Z,19.75
2023-04-07T02:50:07.871Z,20.00
2023-04-07T02:55:12.865Z,21.25
2023-04-07T03:00:17.774Z,20.25
2023-04-07T03:05:35.115Z,16.00
2023-04-07T03:10:40.769Z,19.75
2023-04-07T03:15:47.032Z,17.50
2023-04-07T03:20:54.189Z,15.75
2023-04-07T03:25:59.375Z,14.00
2023-04-07T03:31:08.442Z,16.75
2023-04-07T03:36:13.365Z,18.00
2023-04-07T03:41:18.059Z,18.25
2023-04-07T03:46:24.001Z,19.25
2023-04-07T03:51:29.086Z,16.75
2023-04-07T03:56:35.575Z,19.25
2023-04-07T04:01:39.872Z,13.25
2023-04-07T04:06:51.993Z,19.00
2023-04-07T04:12:19.689Z,17.25
2023-04-07T04:17:42.812Z,15.00
2023-04-07T04:22:47.346Z,17.75
2023-04-07T04:27:51.775Z,17.50
2023-04-07T04:33:01.673Z,15.50
2023-04-07T04:38:18.257Z,18.50
2023-04-07T04:43:29.722Z,13.00
2023-04-07T04:48:35.699Z,17.75
2023-04-07T04:53:43.089Z,19.75
2023-04-07T04:58:47.714Z,15.25
2023-04-07T05:04:11.580Z,18.00
2023-04-07T05:09:22.169Z,21.25
2023-04-07T05:14:27.570Z,17.50
2023-04-07T05:19:40.122Z,15.00
2023-04-07T05:24:52.339Z,17.25
2023-04-07T05:29:57.159Z,16.00
2023-04-07T05:35:06.815Z,13.75
2023-04-07T05:40:15.381Z,13.75
2023-04-07T05:45:21.369Z,14.00
2023-04-07T05:50:27.443Z,17.00
2023-04-07T05:55:35.666Z,13.50
2023-04-07T06:00:43.384Z,15.00
2023-04-07T06:05:52.338Z,14.50
2023-04-07T06:10:58.775Z,13.50
2023-04-07T06:16:03.901Z,16.75
2023-04-07T06:21:10.513Z,13.00
2023-04-07T06:26:15.296Z,18.00
2023-04-07T06:31:20.323Z,13.25
2023-04-07T06:36:25.421Z,12.25
2023-04-07T06:41:30.465Z,13.75
2023-04-07T06:46:35.126Z,17.75
2023-04-07T06:51:39.776Z,13.50
2023-04-07T06:56:44.945Z,15.00
2023-04-07T07:01:52.144Z,16.25
2023-04-07T07:06:57.504Z,12.25
2023-04-07T07:12:04.277Z,17.00
2023-04-07T07:17:09.285Z,13.50
2023-04-07T07:22:13.935Z,16.25
2023-04-07T07:27:18.600Z,16.50
2023-04-07T07:32:23.348Z,14.75
2023-04-07T07:37:27.977Z,13.25
2023-04-07T07:42:33.423Z,14.50
2023-04-07T07:47:38.929Z,19.00
2023-04-07T07:52:44.568Z,14.00
2023-04-07T07:57:49.280Z,13.00
2023-04-07T08:02:54.579Z,15.25
2023-04-07T08:07:59.201Z,15.50
2023-04-07T08:13:03.728Z,16.75
2023-04-07T08:18:08.619Z,14.00
2023-04-07T08:23:13.284Z,15.25
2023-04-07T08:28:18.146Z,13.50
2023-04-07T08:33:23.747Z,12.00
2023-04-07T08:38:29.207Z,13.75
2023-04-07T08:43:34.799Z,14.00
2023-04-07T08:48:42.558Z,13.50
2023-04-07T08:53:53.429Z,16.00
2023-04-07T08:58:58.448Z,12.75
2023-04-07T09:04:04.619Z,13.00
2023-04-07T09:09:09.360Z,14.75
2023-04-07T09:14:14.395Z,13.00
2023-04-07T09:19:19.653Z,15.00
2023-04-07T09:24:26.592Z,14.00
2023-04-07T09:29:31.374Z,14.50
2023-04-07T09:34:41.225Z,15.75
2023-04-07T09:39:53.495Z,15.25
2023-04-07T09:44:58.288Z,13.25
2023-04-07T09:50:08.001Z,14.00
2023-04-07T09:55:12.890Z,15.00
2023-04-07T10:00:18.222Z,15.00
2023-04-07T10:05:22.961Z,12.25
2023-04-07T10:10:28.888Z,18.75
2023-04-07T10:15:33.600Z,16.25
2023-04-07T10:20:41.869Z,18.25
2023-04-07T10:25:47.651Z,19.00
2023-04-07T10:30:52.936Z,16.25
2023-04-07T10:36:08.409Z,17.50
2023-04-07T10:41:31.257Z,21.25
2023-04-07T10:46:51.288Z,18.75
2023-04-07T10:52:16.334Z,17.00
2023-04-07T10:57:22.535Z,20.75
2023-04-07T11:02:27.445Z,21.75
2023-04-07T11:07:49.729Z,17.50
2023-04-07T11:13:01.262Z,18.50
2023-04-07T11:18:12.235Z,25.00
2023-04-07T11:23:18.394Z,31.75
2023-04-07T11:28:23.124Z,20.75
2023-04-07T11:33:29.285Z,24.00
2023-04-07T11:38:40.625Z,27.50
2023-04-07T11:43:45.670Z,25.75
2023-04-07T11:48:50.279Z,29.75
2023-04-07T11:53:59.033Z,16.00
2023-04-07T11:59:04.246Z,25.75
2023-04-07T12:04:09.337Z,21.25
2023-04-07T12:09:31.697Z,26.00
2023-04-07T12:14:36.889Z,26.75
2023-04-07T12:19:42.346Z,22.75
2023-04-07T12:24:47.980Z,26.50
2023-04-07T12:29:52.519Z,21.75
2023-04-07T12:34:58.365Z,19.25
2023-04-07T12:40:03.083Z,23.00
2023-04-07T12:45:08.143Z,28.25
2023-04-07T12:50:12.861Z,29.75
2023-04-07T12:55:18.117Z,49.75
2023-04-07T13:00:26.005Z,36.75
2023-04-07T13:05:31.620Z,33.75
2023-04-07T13:10:36.452Z,35.50
2023-04-07T13:15:41.065Z,37.75
2023-04-07T13:20:54.361Z,30.25
2023-04-07T13:26:09.187Z,33.25
2023-04-07T13:31:17.194Z,34.25
2023-04-07T13:36:23.443Z,31.25
2023-04-07T13:41:29.725Z,27.25
2023-04-07T13:46:34.481Z,33.00
2023-04-07T13:51:40.390Z,31.75
2023-04-07T13:56:44.977Z,37.25
2023-04-07T14:01:50.008Z,34.75
2023-04-07T14:06:57.786Z,36.50
2023-04-07T14:12:02.824Z,32.75
2023-04-07T14:17:08.108Z,33.75
2023-04-07T14:22:12.956Z,22.25
2023-04-07T14:27:22.096Z,29.00
2023-04-07T14:32:27.038Z,34.25
2023-04-07T14:37:32.148Z,35.25
2023-04-07T14:42:38.455Z,26.50
2023-04-07T14:47:43.469Z,31.50
2023-04-07T14:52:48.433Z,30.25
2023-04-07T14:57:53.530Z,30.50
2023-04-07T15:02:58.603Z,36.50
2023-04-07T15:08:05.324Z,23.25
2023-04-07T15:13:10.054Z,26.50
2023-04-07T15:18:14.894Z,23.75
2023-04-07T15:23:19.648Z,22.25
2023-04-07T15:28:24.841Z,26.75
2023-04-07T15:33:29.981Z,24.00
2023-04-07T15:38:36.044Z,21.75
2023-04-07T15:43:40.797Z,26.50
2023-04-07T15:48:45.693Z,24.25
2023-04-07T15:53:50.587Z,24.50
2023-04-07T15:58:55.468Z,22.00
2023-04-07T16:04:00.558Z,25.00
2023-04-07T16:09:05.789Z,30.50
2023-04-07T16:14:10.524Z,23.75
2023-04-07T16:19:15.598Z,24.75
2023-04-07T16:24:20.409Z,24.75
2023-04-07T16:29:25.212Z,23.00
2023-04-07T16:34:31.207Z,20.25
2023-04-07T16:39:35.953Z,28.25
2023-04-07T16:44:40.665Z,24.25
2023-04-07T16:49:45.464Z,22.00
2023-04-07T16:54:50.199Z,23.25
2023-04-07T16:59:54.841Z,24.25
2023-04-07T17:04:59.546Z,21.25
2023-04-07T17:10:04.887Z,22.75
2023-04-07T17:15:09.933Z,25.25
2023-04-07T17:20:14.832Z,22.50
2023-04-07T17:25:19.522Z,23.00
2023-04-07T17:30:24.511Z,23.50
2023-04-07T17:35:29.449Z,22.00
2023-04-07T17:40:34.320Z,20.25
2023-04-07T17:45:39.034Z,19.75
2023-04-07T17:50:44.959Z,25.75
2023-04-07T17:55:49.696Z,18.25
2023-04-07T18:00:54.565Z,28.00
2023-04-07T18:05:59.214Z,23.75
2023-04-07T18:11:05.863Z,23.50
2023-04-07T18:16:12.977Z,19.00
2023-04-07T18:21:17.617Z,19.50
2023-04-07T18:26:23.972Z,16.00
2023-04-07T18:31:29.096Z,18.25
2023-04-07T18:36:33.723Z,22.50
2023-04-07T18:41:38.449Z,18.75
2023-04-07T18:46:43.279Z,18.75
2023-04-07T18:51:49.502Z,17.00
2023-04-07T18:56:54.158Z,21.50
2023-04-07T19:02:00.082Z,20.75
2023-04-07T19:07:04.766Z,18.00
2023-04-07T19:12:10.775Z,26.25
2023-04-07T19:17:15.749Z,17.25
2023-04-07T19:22:20.767Z,23.25
2023-04-07T19:27:25.827Z,19.00
2023-04-07T19:32:30.535Z,18.25
2023-04-07T19:37:35.195Z,22.50
2023-04-07T19:42:41.178Z,20.75
2023-04-07T19:47:45.819Z,19.75
2023-04-07T19:52:51.667Z,17.50
2023-04-07T19:57:56.531Z,19.00
2023-04-07T20:03:02.469Z,23.75
2023-04-07T20:08:07.308Z,16.75
2023-04-07T20:13:12.546Z,18.00
2023-04-07T20:18:20.545Z,17.50
2023-04-07T20:23:25.424Z,20.00
2023-04-07T20:28:30.056Z,21.25
2023-04-07T20:33:34.701Z,18.25
2023-04-07T20:38:39.614Z,21.50
2023-04-07T20:43:44.448Z,23.50
2023-04-07T20:48:49.256Z,16.75
2023-04-07T20:53:54.165Z,19.75
2023-04-07T20:58:59.018Z,19.25
2023-04-07T21:04:04.083Z,21.00
2023-04-07T21:09:09.992Z,19.25
2023-04-07T21:14:14.816Z,17.00
2023-04-07T21:19:19.528Z,17.25
2023-04-07T21:24:24.846Z,20.00
2023-04-07T21:29:33.040Z,16.00
2023-04-07T21:34:37.884Z,18.25
2023-04-07T21:39:42.842Z,17.00
2023-04-07T21:44:47.554Z,17.75
2023-04-07T21:49:52.037Z,18.00
2023-04-07T21:54:56.697Z,19.00
2023-04-07T22:00:01.400Z,17.75
2023-04-07T22:05:06.371Z,17.25
2023-04-07T22:10:11.352Z,21.75
2023-04-07T22:15:16.183Z,18.00
2023-04-07T22:20:20.927Z,18.00
2023-04-07T22:25:25.915Z,19.00
2023-04-07T22:30:31.662Z,16.75
2023-04-07T22:35:36.382Z,18.00
2023-04-07T22:40:41.299Z,17.25
2023-04-07T22:45:46.082Z,17.50
2023-04-07T22:50:50.855Z,20.00
2023-04-07T22:55:55.586Z,21.00
2023-04-07T23:01:00.391Z,17.75
2023-04-07T23:06:05.302Z,23.00
2023-04-07T23:11:13.012Z,18.75
2023-04-07T23:16:17.995Z,18.25
2023-04-07T23:21:22.881Z,22.00
2023-04-07T23:26:28.062Z,20.50
2023-04-07T23:31:33.024Z,22.75
2023-04-07T23:36:37.975Z,19.75
2023-04-07T23:41:42.659Z,18.00
2023-04-07T23:46:47.462Z,17.75
2023-04-07T23:51:52.676Z,17.00
2023-04-07T23:56:58.441Z,17.00
